createdAt,value
2022-12-11T00:01:12.927Z,47.22
2022-12-11T00:04:02.864Z,48.25
2022-12-11T00:06:53.373Z,49.28
2022-12-11T00:09:43.396Z,47.47
2022-12-11T00:12:33.592Z,42.38
2022-12-11T00:15:26.261Z,46.23
2022-12-11T00:18:16.129Z,47.55
2022-12-11T00:21:08.960Z,38.47
2022-12-11T00:23:59.211Z,39.00
2022-12-11T00:26:49.815Z,38.10
2022-12-11T00:29:39.664Z,41.20
2022-12-11T00:32:33.688Z,39.38
2022-12-11T00:35:26.744Z,39.70
2022-12-11T00:38:19.401Z,41.33
2022-12-11T00:41:09.716Z,44.30
2022-12-11T00:43:59.527Z,44.15
2022-12-11T00:46:49.568Z,39.22
2022-12-11T00:49:39.501Z,40.55
2022-12-11T00:52:29.721Z,44.05
2022-12-11T00:55:19.763Z,40.80
2022-12-11T00:58:09.751Z,41.95
2022-12-11T01:01:06.999Z,43.00
2022-12-11T01:03:57.442Z,43.63
2022-12-11T01:06:47.442Z,43.47
2022-12-11T01:09:55.986Z,47.50
2022-12-11T01:12:46.223Z,39.35
2022-12-11T01:15:43.015Z,43.92
2022-12-11T01:18:33.182Z,42.25
2022-12-11T01:21:23.119Z,45.67
2022-12-11T01:24:12.902Z,41.78
2022-12-11T01:27:02.660Z,49.50
2022-12-11T01:29:53.182Z,40.67
2022-12-11T01:32:43.056Z,47.35
2022-12-11T01:35:32.906Z,43.30
2022-12-11T01:38:22.850Z,46.85
2022-12-11T01:41:13.127Z,42.10
2022-12-11T01:44:28.103Z,44.05
2022-12-11T01:47:18.459Z,42.38
2022-12-11T01:50:08.735Z,43.72
2022-12-11T01:52:59.331Z,47.38
2022-12-11T01:55:53.522Z,42.42
2022-12-11T01:58:52.052Z,57.85
2022-12-11T02:01:51.028Z,55.72
2022-12-11T02:04:42.432Z,58.15
2022-12-11T02:07:38.864Z,59.80
2022-12-11T02:10:57.769Z,51.90
2022-12-11T02:14:02.625Z,52.15
2022-12-11T02:17:01.305Z,50.42
2022-12-11T02:20:00.231Z,50.38
2022-12-11T02:23:12.491Z,50.20
2022-12-11T02:26:19.973Z,44.05
2022-12-11T02:29:20.613Z,47.97
2022-12-11T02:32:16.842Z,45.90
2022-12-11T02:35:10.507Z,48.95
2022-12-11T02:38:08.012Z,44.22
2022-12-11T02:40:59.688Z,51.08
2022-12-11T02:43:51.598Z,43.85
2022-12-11T02:46:44.150Z,45.88
2022-12-11T02:49:35.164Z,43.28
2022-12-11T02:52:26.899Z,49.67
2022-12-11T02:55:17.873Z,47.42
2022-12-11T02:58:21.396Z,51.03
2022-12-11T03:01:11.750Z,53.78
2022-12-11T03:04:02.274Z,53.58
2022-12-11T03:06:56.403Z,51.63
2022-12-11T03:09:48.536Z,51.80
2022-12-11T03:12:42.550Z,53.88
2022-12-11T03:18:41.106Z,52.90
2022-12-11T03:21:38.296Z,56.50
2022-12-11T03:24:52.428Z,59.13
2022-12-11T03:27:50.493Z,55.67
2022-12-11T03:30:41.857Z,56.13
2022-12-11T03:33:37.682Z,55.38
2022-12-11T03:36:33.451Z,58.65
2022-12-11T03:39:33.243Z,56.65
2022-12-11T03:42:24.969Z,60.90
2022-12-11T03:45:16.050Z,56.42
2022-12-11T03:48:08.832Z,55.58
2022-12-11T03:51:00.529Z,54.58
2022-12-11T03:53:51.979Z,60.70
2022-12-11T03:56:44.246Z,52.13
2022-12-11T03:59:34.542Z,61.67
2022-12-11T04:02:24.995Z,53.50
2022-12-11T04:05:15.165Z,57.00
2022-12-11T04:08:05.484Z,56.90
2022-12-11T04:11:14.613Z,62.42
2022-12-11T04:14:26.494Z,57.45
2022-12-11T04:17:36.789Z,57.35
2022-12-11T04:20:45.494Z,55.88
2022-12-11T04:23:54.244Z,59.92
2022-12-11T04:26:46.567Z,57.10
2022-12-11T04:29:36.743Z,61.78
2022-12-11T04:32:26.571Z,67.20
2022-12-11T04:35:16.537Z,68.60
2022-12-11T04:38:06.716Z,61.25
2022-12-11T04:41:01.000Z,65.50
2022-12-11T04:43:50.871Z,62.03
2022-12-11T04:46:40.979Z,68.05
2022-12-11T04:49:31.330Z,59.35
2022-12-11T04:52:21.434Z,63.80
2022-12-11T04:55:12.498Z,60.50
2022-12-11T04:58:02.983Z,57.63
2022-12-11T05:00:53.145Z,61.17
2022-12-11T05:03:43.834Z,64.63
2022-12-11T05:06:33.809Z,61.10
2022-12-11T05:09:23.727Z,59.67
2022-12-11T05:12:13.733Z,64.65
2022-12-11T05:15:04.207Z,58.58
2022-12-11T05:17:54.435Z,61.88
2022-12-11T05:20:44.619Z,61.75
2022-12-11T05:23:35.281Z,65.07
2022-12-11T05:26:25.164Z,64.32
2022-12-11T05:29:14.905Z,63.67
2022-12-11T05:32:04.924Z,63.50
2022-12-11T05:34:55.144Z,54.08
2022-12-11T05:37:45.504Z,58.42
2022-12-11T05:40:35.577Z,59.33
2022-12-11T05:43:27.170Z,55.88
2022-12-11T05:46:20.606Z,62.22
2022-12-11T05:49:11.204Z,55.83
2022-12-11T05:52:01.139Z,59.85
2022-12-11T05:54:51.061Z,61.88
2022-12-11T05:57:41.685Z,59.80
2022-12-11T06:00:35.987Z,60.95
2022-12-11T06:03:27.868Z,56.38
2022-12-11T06:06:17.735Z,58.92
2022-12-11T06:09:08.062Z,62.45
2022-12-11T06:11:57.858Z,57.15
2022-12-11T06:14:47.755Z,57.92
2022-12-11T06:17:37.991Z,57.78
2022-12-11T06:20:31.459Z,63.40
2022-12-11T06:26:11.959Z,60.10
2022-12-11T06:29:02.546Z,54.55
2022-12-11T06:31:54.466Z,58.53
2022-12-11T06:34:44.903Z,62.97
2022-12-11T06:37:36.205Z,56.17
2022-12-11T06:40:26.380Z,58.47
2022-12-11T06:43:16.437Z,71.60
2022-12-11T06:46:08.944Z,69.10
2022-12-11T06:48:59.359Z,71.22
2022-12-11T06:51:49.526Z,67.93
2022-12-11T06:54:39.626Z,60.13
2022-12-11T06:57:29.509Z,62.80
2022-12-11T07:00:19.630Z,69.18
2022-12-11T07:03:10.096Z,68.53
2022-12-11T07:06:03.409Z,68.93
2022-12-11T07:08:53.402Z,66.70
2022-12-11T07:11:43.683Z,70.43
2022-12-11T07:14:33.958Z,70.57
2022-12-11T07:17:23.888Z,67.63
2022-12-11T07:20:13.676Z,73.43
2022-12-11T07:23:03.699Z,66.35
2022-12-11T07:25:54.297Z,71.93
2022-12-11T07:28:45.316Z,71.45
2022-12-11T07:31:35.971Z,64.90
2022-12-11T07:34:26.177Z,75.68
2022-12-11T07:37:16.071Z,71.65
2022-12-11T07:40:06.487Z,75.07
2022-12-11T07:42:56.459Z,74.10
2022-12-11T07:45:46.687Z,72.72
2022-12-11T07:48:38.951Z,74.80
2022-12-11T07:51:31.268Z,80.90
2022-12-11T07:54:21.574Z,88.28
2022-12-11T07:57:14.162Z,72.43
2022-12-11T08:00:05.300Z,73.65
2022-12-11T08:03:02.469Z,81.57
2022-12-11T08:05:53.369Z,75.65
2022-12-11T08:08:44.210Z,83.28
2022-12-11T08:11:34.633Z,77.63
2022-12-11T08:14:26.000Z,75.28
2022-12-11T08:17:16.148Z,81.07
2022-12-11T08:20:06.354Z,81.97
2022-12-11T08:22:59.291Z,84.53
2022-12-11T08:25:49.542Z,83.40
2022-12-11T08:28:39.591Z,95.10
2022-12-11T08:31:30.373Z,85.63
2022-12-11T08:34:20.678Z,89.00
2022-12-11T08:37:10.785Z,81.97
2022-12-11T08:40:00.600Z,88.82
2022-12-11T08:42:51.653Z,83.97
2022-12-11T08:45:41.550Z,87.10
2022-12-11T08:48:32.064Z,84.00
2022-12-11T08:51:25.029Z,82.55
2022-12-11T08:54:15.213Z,83.72
2022-12-11T08:57:05.461Z,75.80
2022-12-11T08:59:55.443Z,74.93
2022-12-11T09:02:45.403Z,79.93
2022-12-11T09:05:38.429Z,77.07
2022-12-11T09:08:28.752Z,78.05
2022-12-11T09:11:27.485Z,84.07
2022-12-11T09:14:17.363Z,99.10
2022-12-11T09:17:07.438Z,82.68
2022-12-11T09:19:57.562Z,87.00
2022-12-11T09:22:47.556Z,84.75
2022-12-11T09:25:40.463Z,86.82
2022-12-11T09:28:31.146Z,88.70
2022-12-11T09:31:28.914Z,73.82
2022-12-11T09:34:18.818Z,78.05
2022-12-11T09:37:09.073Z,89.65
2022-12-11T09:40:02.635Z,84.88
2022-12-11T09:43:06.314Z,81.93
2022-12-11T09:45:57.260Z,81.30
2022-12-11T09:48:49.240Z,73.38
2022-12-11T09:52:05.331Z,77.45
2022-12-11T09:54:59.581Z,83.90
2022-12-11T09:58:05.239Z,76.85
2022-12-11T10:01:23.341Z,74.53
2022-12-11T10:04:19.042Z,92.50
2022-12-11T10:07:19.046Z,79.97
2022-12-11T10:10:28.173Z,84.40
2022-12-11T10:13:30.318Z,82.60
2022-12-11T10:16:38.978Z,76.40
2022-12-11T10:19:31.805Z,78.13
2022-12-11T10:22:26.929Z,79.47
2022-12-11T10:25:41.658Z,73.38
2022-12-11T10:28:31.725Z,79.90
2022-12-11T10:31:39.117Z,73.68
2022-12-11T10:34:44.485Z,77.15
2022-12-11T10:37:34.522Z,71.57
2022-12-11T10:40:26.555Z,80.10
2022-12-11T10:43:17.161Z,81.38
2022-12-11T10:46:16.122Z,80.03
2022-12-11T10:49:20.511Z,71.45
2022-12-11T10:55:22.440Z,79.95
2022-12-11T10:58:21.993Z,70.63
2022-12-11T11:01:26.859Z,67.30
2022-12-11T11:04:39.362Z,70.20
2022-12-11T11:07:34.625Z,61.85
2022-12-11T11:10:28.406Z,60.75
2022-12-11T11:13:21.779Z,61.85
2022-12-11T11:16:15.796Z,61.87
2022-12-11T11:19:06.940Z,67.63
2022-12-11T11:22:01.226Z,62.58
2022-12-11T11:24:59.098Z,68.53
2022-12-11T11:28:07.120Z,61.90
2022-12-11T11:30:59.761Z,72.22
2022-12-11T11:33:56.044Z,84.15
2022-12-11T11:36:57.285Z,68.18
2022-12-11T11:39:50.151Z,65.85
2022-12-11T11:43:05.974Z,65.57
2022-12-11T11:46:06.395Z,63.70
2022-12-11T11:49:30.635Z,76.40
2022-12-11T11:55:45.540Z,63.35
2022-12-11T11:58:57.526Z,65.45
2022-12-11T12:01:47.766Z,59.00
2022-12-11T12:04:38.085Z,61.78
2022-12-11T12:07:40.639Z,71.00
2022-12-11T12:10:58.487Z,65.47
2022-12-11T12:14:29.098Z,73.93
2022-12-11T12:17:31.439Z,62.65
2022-12-11T12:20:26.093Z,64.30
2022-12-11T12:23:22.337Z,66.68
2022-12-11T12:26:21.836Z,67.38
2022-12-11T12:30:05.563Z,65.20
2022-12-11T12:33:12.007Z,68.40
2022-12-11T12:36:21.518Z,64.47
2022-12-11T12:39:40.408Z,65.40
2022-12-11T12:42:30.763Z,68.80
2022-12-11T12:45:40.263Z,73.07
2022-12-11T12:48:30.981Z,67.38
2022-12-11T12:51:21.426Z,63.40
2022-12-11T12:54:15.773Z,62.58
2022-12-11T12:57:06.195Z,66.22
2022-12-11T12:59:56.250Z,71.35
2022-12-11T13:02:50.793Z,62.00
2022-12-11T13:05:43.422Z,59.70
2022-12-11T13:08:44.983Z,66.00
2022-12-11T13:11:39.629Z,56.08
2022-12-11T13:14:32.869Z,60.28
2022-12-11T13:17:37.024Z,61.22
2022-12-11T13:20:59.623Z,59.25
2022-12-11T13:23:50.068Z,66.80
2022-12-11T13:26:41.087Z,71.88
2022-12-11T13:29:39.925Z,64.20
2022-12-11T13:32:31.107Z,81.60
2022-12-11T13:35:21.451Z,71.63
2022-12-11T13:38:20.868Z,71.30
2022-12-11T13:41:12.112Z,67.40
2022-12-11T13:44:02.902Z,72.47
2022-12-11T13:46:55.532Z,71.25
2022-12-11T13:49:49.972Z,73.25
2022-12-11T13:52:40.828Z,67.82
2022-12-11T13:55:33.354Z,74.88
2022-12-11T13:58:23.948Z,64.63
2022-12-11T14:01:24.222Z,68.68
2022-12-11T14:04:19.711Z,66.03
2022-12-11T14:07:11.471Z,58.17
2022-12-11T14:10:09.339Z,63.63
2022-12-11T14:13:03.960Z,60.72
2022-12-11T14:15:54.612Z,63.70
2022-12-11T14:18:44.931Z,61.92
2022-12-11T14:21:36.245Z,55.95
2022-12-11T14:24:27.176Z,60.42
2022-12-11T14:27:18.617Z,64.72
2022-12-11T14:30:12.573Z,59.55
2022-12-11T14:33:05.511Z,63.03
2022-12-11T14:35:56.006Z,62.40
2022-12-11T14:38:49.292Z,62.75
2022-12-11T14:41:46.945Z,63.95
2022-12-11T14:44:50.338Z,59.35
2022-12-11T14:47:43.172Z,41.08
2022-12-11T14:50:46.431Z,61.27
2022-12-11T14:53:46.489Z,60.47
2022-12-11T14:56:37.169Z,56.10
2022-12-11T14:59:32.293Z,61.92
2022-12-11T15:02:32.565Z,59.40
2022-12-11T15:05:22.830Z,65.10
2022-12-11T15:08:13.148Z,56.30
2022-12-11T15:11:17.492Z,58.38
2022-12-11T15:14:11.716Z,57.35
2022-12-11T15:17:02.290Z,61.28
2022-12-11T15:19:56.960Z,64.13
2022-12-11T15:22:47.520Z,63.58
2022-12-11T15:25:38.178Z,62.97
2022-12-11T15:28:37.190Z,60.70
2022-12-11T15:31:30.908Z,61.38
2022-12-11T15:34:22.966Z,60.58
2022-12-11T15:37:24.275Z,57.15
2022-12-11T15:40:14.898Z,52.17
2022-12-11T15:43:05.298Z,55.88
2022-12-11T15:45:55.365Z,59.55
2022-12-11T15:48:45.712Z,50.38
2022-12-11T15:51:41.133Z,53.17
2022-12-11T15:54:33.199Z,54.30
2022-12-11T15:57:24.501Z,51.80
2022-12-11T16:00:16.634Z,57.20
2022-12-11T16:03:11.073Z,68.87
2022-12-11T16:08:52.293Z,58.13
2022-12-11T16:11:43.375Z,54.90
2022-12-11T16:14:33.356Z,67.72
2022-12-11T16:17:23.416Z,55.78
2022-12-11T16:20:14.946Z,62.30
2022-12-11T16:23:05.760Z,54.42
2022-12-11T16:25:55.966Z,60.35
2022-12-11T16:28:45.901Z,57.05
2022-12-11T16:31:35.847Z,60.85
2022-12-11T16:34:27.076Z,66.57
2022-12-11T16:37:18.107Z,54.50
2022-12-11T16:40:09.267Z,52.40
2022-12-11T16:42:59.452Z,54.20
2022-12-11T16:45:54.765Z,58.08
2022-12-11T16:48:45.653Z,52.47
2022-12-11T16:51:37.022Z,63.33
2022-12-11T16:54:27.117Z,55.88
2022-12-11T16:57:17.385Z,56.75
2022-12-11T17:00:10.151Z,66.95
2022-12-11T17:03:00.581Z,54.83
2022-12-11T17:05:50.813Z,63.85
2022-12-11T17:08:42.717Z,74.32
2022-12-11T17:11:33.129Z,64.45
2022-12-11T17:14:23.975Z,59.88
2022-12-11T17:17:13.816Z,62.40
2022-12-11T17:20:04.126Z,55.47
2022-12-11T17:22:54.154Z,60.47
2022-12-11T17:25:45.338Z,59.85
2022-12-11T17:28:36.544Z,63.63
2022-12-11T17:31:27.279Z,58.20
2022-12-11T17:34:17.810Z,62.88
2022-12-11T17:37:07.727Z,68.28
2022-12-11T17:39:57.621Z,55.92
2022-12-11T17:42:47.928Z,65.30
2022-12-11T17:45:42.721Z,62.83
2022-12-11T17:48:33.184Z,58.53
2022-12-11T17:51:26.283Z,68.03
2022-12-11T17:54:16.001Z,70.10
2022-12-11T17:57:06.805Z,69.78
2022-12-11T17:59:56.612Z,65.13
2022-12-11T18:02:46.917Z,70.78
2022-12-11T18:05:42.973Z,67.63
2022-12-11T18:08:33.275Z,69.22
2022-12-11T18:11:23.841Z,65.78
2022-12-11T18:14:17.143Z,65.13
2022-12-11T18:19:57.781Z,67.30
2022-12-11T18:22:47.596Z,62.47
2022-12-11T18:25:37.641Z,69.45
2022-12-11T18:28:30.182Z,69.85
2022-12-11T18:31:21.520Z,66.63
2022-12-11T18:34:11.736Z,64.38
2022-12-11T18:37:02.437Z,70.53
2022-12-11T18:39:52.630Z,69.38
2022-12-11T18:42:43.011Z,71.65
2022-12-11T18:45:33.472Z,78.93
2022-12-11T18:48:24.148Z,70.28
2022-12-11T18:51:23.608Z,69.30
2022-12-11T18:54:13.986Z,78.70
2022-12-11T18:57:04.523Z,70.90
2022-12-11T18:59:54.596Z,72.50
2022-12-11T19:02:44.684Z,67.63
2022-12-11T19:05:36.053Z,75.90
2022-12-11T19:08:26.547Z,73.55
2022-12-11T19:11:19.089Z,78.18
2022-12-11T19:14:10.009Z,70.72
2022-12-11T19:17:00.693Z,72.47
2022-12-11T19:19:50.658Z,70.10
2022-12-11T19:22:40.566Z,70.72
2022-12-11T19:25:31.752Z,71.25
2022-12-11T19:28:22.012Z,73.25
2022-12-11T19:31:15.306Z,71.80
2022-12-11T19:34:05.476Z,79.90
2022-12-11T19:36:56.225Z,76.30
2022-12-11T19:39:46.527Z,74.35
2022-12-11T19:42:36.594Z,71.35
2022-12-11T19:45:26.987Z,72.95
2022-12-11T19:48:17.144Z,71.75
2022-12-11T19:51:16.028Z,83.47
2022-12-11T19:54:13.725Z,77.57
2022-12-11T19:57:04.224Z,81.43
2022-12-11T19:59:57.315Z,77.30
2022-12-11T20:02:49.009Z,71.38
2022-12-11T20:05:39.735Z,75.18
2022-12-11T20:08:44.228Z,83.63
2022-12-11T20:11:35.499Z,71.90
2022-12-11T20:14:26.597Z,79.68
2022-12-11T20:17:16.890Z,73.43
2022-12-11T20:20:07.599Z,70.20
2022-12-11T20:22:59.317Z,69.22
2022-12-11T20:25:51.464Z,70.22
2022-12-11T20:28:47.850Z,70.80
2022-12-11T20:31:38.025Z,70.47
2022-12-11T20:34:28.343Z,76.57
2022-12-11T20:37:21.048Z,71.03
2022-12-11T20:40:12.850Z,68.53
2022-12-11T20:43:05.488Z,72.05
2022-12-11T20:45:55.705Z,75.50
2022-12-11T20:48:47.072Z,80.25
2022-12-11T20:51:39.066Z,74.35
2022-12-11T20:54:29.348Z,75.20
2022-12-11T20:57:19.575Z,71.78
2022-12-11T21:00:10.378Z,73.22
2022-12-11T21:03:00.719Z,71.97
2022-12-11T21:05:50.646Z,65.53
2022-12-11T21:08:40.571Z,68.10
2022-12-11T21:11:32.029Z,68.25
2022-12-11T21:14:22.644Z,73.63
2022-12-11T21:17:12.947Z,67.57
2022-12-11T21:20:04.400Z,57.67
2022-12-11T21:22:57.410Z,63.55
2022-12-11T21:25:47.704Z,67.63
2022-12-11T21:28:37.830Z,63.80
2022-12-11T21:31:28.843Z,66.55
2022-12-11T21:34:25.093Z,67.20
2022-12-11T21:37:15.864Z,66.72
2022-12-11T21:40:06.869Z,63.55
2022-12-11T21:43:03.343Z,66.75
2022-12-11T21:46:01.672Z,75.35
2022-12-11T21:48:52.934Z,78.03
2022-12-11T21:51:47.224Z,73.20
2022-12-11T21:54:38.145Z,68.95
2022-12-11T21:57:28.118Z,64.97
2022-12-11T22:00:18.243Z,66.07
2022-12-11T22:03:08.419Z,68.00
2022-12-11T22:05:58.727Z,68.15
2022-12-11T22:08:49.449Z,65.45
2022-12-11T22:11:45.942Z,59.80
2022-12-11T22:14:36.761Z,61.47
2022-12-11T22:17:27.001Z,69.75
2022-12-11T22:20:20.747Z,59.65
2022-12-11T22:23:10.887Z,58.65
2022-12-11T22:26:01.106Z,69.68
2022-12-11T22:28:54.466Z,61.75
2022-12-11T22:31:47.521Z,67.50
2022-12-11T22:34:37.453Z,61.97
2022-12-11T22:37:27.478Z,55.03
2022-12-11T22:40:17.883Z,55.17
2022-12-11T22:43:08.222Z,44.50
2022-12-11T22:45:58.318Z,38.03
2022-12-11T22:48:51.412Z,40.92
2022-12-11T22:51:41.603Z,46.78
2022-12-11T22:54:32.022Z,50.88
2022-12-11T22:57:22.194Z,54.15
2022-12-11T23:00:14.152Z,47.60
2022-12-11T23:03:04.254Z,57.83
2022-12-11T23:05:54.961Z,48.72
2022-12-11T23:08:45.161Z,48.45
2022-12-11T23:11:37.507Z,47.72
2022-12-11T23:14:28.156Z,51.80
2022-12-11T23:17:21.631Z,54.28
2022-12-11T23:23:01.856Z,55.28
2022-12-11T23:25:51.850Z,47.80
2022-12-11T23:28:42.349Z,51.80
2022-12-11T23:31:36.830Z,43.72
2022-12-11T23:34:26.839Z,49.88
2022-12-11T23:37:17.081Z,44.92
2022-12-11T23:40:08.989Z,47.47
2022-12-11T23:43:00.051Z,45.15
2022-12-11T23:45:52.411Z,51.67
2022-12-11T23:48:45.481Z,55.33
2022-12-11T23:51:35.508Z,48.28
2022-12-11T23:54:25.639Z,58.38
2022-12-11T23:57:15.678Z,60.08
